Weather observations for the past three days for
Hobbs / Lea County
Imperial (Metric)
Date Time (mdt) Wind (mph) Vis. (mi.) Weather Sky Cond. Temperature (ºF) Relative Humidity Wind Chill (°F) Heat Index (°F) Pressure Precipitation (in)
Air Dwpt 6 hour altimeter (in) sea level (mb) 1 hr 3 hr 6 hr
Max. Min.
10 09:50 N 28 10.00 Fair and Windy CLR 73.4 51.8 47% 29.99 0.0
10 08:50 N 23 10.00 Fair and Breezy CLR 71.6 50 47% 29.96 0.0
10 07:50 NW 8 G 16 10.00 Fair CLR 69.8 44.6 40% 29.94 0.0
10 06:50 W 7 10.00 Fair CLR 60.8 46.4 59% 29.9 0.0
10 05:50 W 6 10.00 Fair CLR 59 44.6 59% 29.97 0.0
10 05:35 SW 8 10.00 Fair CLR 59 44.6 59% 29.86 0.0
10 05:15 SW 9 10.00 Fair CLR 60.8 44.6 55% 29.86 0.0
10 04:35 S 12 10.00 Fair CLR 62.6 42.8 49% 29.85 0.0
10 04:15 S 8 10.00 Fair CLR 62.6 41 45% 29.85 0.0
10 03:55 S 9 10.00 Fair CLR 64.4 39.2 40% 29.85 0.0
10 03:35 S 13 10.00 Fair CLR 64.4 39.2 40% 29.85 0.0
10 03:15 S 13 10.00 Fair CLR 64.4 39.2 40% 29.85 0.0
10 02:55 S 12 10.00 Fair CLR 66.2 37.4 35% 29.85 0.0
10 02:35 S 13 10.00 Fair CLR 68 37.4 33% 29.84 0.0
10 02:15 S 13 10.00 Fair CLR 68 35.6 30% 29.84 0.0
10 01:35 S 12 G 18 10.00 Fair CLR 68 35.6 30% 29.85 0.0
10 01:15 S 13 10.00 Fair CLR 69.8 35.6 29% 29.86 0.0
10 00:55 S 13 10.00 Fair CLR 69.8 33.8 27% 29.86 0.0
10 00:35 S 14 10.00 Fair CLR 71.6 33.8 25% 29.86 0.0
09 23:35 S 14 10.00 Fair CLR 71.6 33.8 25% 29.86 0.0
09 22:15 S 9 10.00 Fair CLR 68 32 26% 29.86 0.0
09 21:15 S 9 10.00 Fair CLR 69.8 30.2 23% 29.84 0.0
09 20:35 S 10 10.00 Fair CLR 73.4 30.2 20% 29.83 0.0
09 20:15 S 10 10.00 Fair CLR 77 28.4 17% 77 29.83 0.0
09 19:55 S 8 10.00 Fair CLR 78.8 26.6 15% 78 29.82 0.0
09 19:35 S 8 10.00 Fair CLR 82.4 26.6 13% 80 29.82 0.0
09 18:55 S 10 10.00 Fair CLR 89.6 21.2 8% 86 29.81 0.0
09 18:35 SW 7 10.00 Fair CLR 91.4 21.2 8% 87 29.81 0.0
09 14:50 SW 15 G 24 10.00 Fair CLR 91.4 23 8% 87 29.88 0.0
09 13:50 SW 12 10.00 Fair CLR 91.4 24.8 9% 87 29.9 0.0
09 12:50 S 18 G 29 10.00 Fair CLR 89.6 28.4 11% 86 29.91 0.0
09 11:50 S 16 10.00 Fair CLR 87.8 30.2 13% 84 29.95 0.0
09 10:50 S 16 G 23 10.00 Fair CLR 84.2 32 15% 81 29.95 0.0
09 09:50 S 14 10.00 Fair CLR 78.8 37.4 23% 78 29.96 0.0
09 08:50 S 13 10.00 Fair CLR 75.2 41 29% 77 29.96 0.0
09 07:50 S 9 10.00 Fair CLR 66.2 44.6 46% 29.96 0.0
09 06:50 S 5 10.00 Fair CLR 59 44.6 59% 29.94 0.0
09 05:50 SW 6 10.00 Fair CLR 55.4 41 59% 29.95 0.0
09 05:35 S 6 10.00 Fair CLR 57.2 41 55% 29.94 0.0
09 05:15 SE 5 10.00 Fair CLR 55.4 41 59% 29.93 0.0
09 04:55 SE 6 10.00 Fair CLR 57.2 41 55% 29.93 0.0
09 04:35 SE 8 10.00 Fair CLR 59 39.2 48% 29.93 0.0
09 04:15 SE 9 10.00 Fair CLR 60.8 37.4 42% 29.91 0.0
09 03:55 SE 6 10.00 Fair CLR 59 39.2 48% 29.89 0.0
09 03:35 W 6 10.00 Fair CLR 62.6 37.4 39% 29.88 0.0
09 03:15 W 10 10.00 Fair CLR 64.4 37.4 37% 29.89 0.0
09 02:55 W 13 10.00 Fair CLR 66.2 37.4 35% 29.89 0.0
09 02:35 W 12 10.00 Fair CLR 64.4 37.4 37% 29.89 0.0
09 02:15 W 12 10.00 A Few Clouds FEW046 66.2 37.4 35% 29.89 0.0
09 01:55 W 13 10.00 A Few Clouds FEW034 FEW048 66.2 37.4 35% 29.89 0.0
09 01:35 W 12 10.00 A Few Clouds FEW048 66.2 37.4 35% 29.9 0.0
09 01:15 W 10 10.00 A Few Clouds FEW048 66.2 39.2 37% 29.9 0.0
09 00:55 W 10 10.00 A Few Clouds FEW050 66.2 39.2 37% 29.91 0.0
09 00:35 SW 9 G 15 10.00 Partly Cloudy FEW049 SCT055 66.2 39.2 37% 29.91 0.0
09 00:15 SW 10 10.00 Fair CLR 68 39.2 35% 29.91 0.0
08 23:55 SW 9 10.00 A Few Clouds FEW050 68 39.2 35% 29.92 0.0
08 23:35 W 14 10.00 Fair CLR 69.8 37.4 31% 29.92 0.0
08 23:15 W 15 10.00 A Few Clouds FEW045 71.6 37.4 29% 29.93 0.0
08 22:55 NW 8 G 16 10.00 Fair CLR 75.2 33.8 22% 76 29.93 0.0
08 22:35 W 12 10.00 Fair CLR 73.4 35.6 25% 29.93 0.0
08 22:15 NE 14 G 24 10.00 Fair CLR 66.2 30.2 26% 29.95 0.0
08 21:55 W 8 10.00 Fair CLR 66.2 30.2 26% 29.89 0.0
08 21:35 W 12 10.00 Fair CLR 66.2 30.2 26% 29.88 0.0
08 21:15 W 8 10.00 Fair CLR 68 28.4 23% 29.88 0.0
08 20:55 W 9 10.00 Fair CLR 69.8 26.6 20% 29.87 0.0
08 20:35 W 9 10.00 Fair CLR 73.4 24.8 16% 29.87 0.0
08 20:15 W 8 10.00 Fair CLR 73.4 26.6 17% 29.86 0.0
08 19:55 W 9 10.00 Fair CLR 77 23 13% 76 29.86 0.0
08 19:35 W 7 10.00 Fair CLR 80.6 19.4 10% 79 29.85 0.0
08 19:15 W 6 10.00 Fair CLR 82.4 19.4 9% 80 29.84 0.0
08 18:55 W 7 10.00 Fair CLR 84.2 15.8 8% 81 29.84 0.0
08 18:35 W 5 G 12 10.00 Fair CLR 86 14 7% 83 29.84 0.0
08 18:15 N 6 G 13 10.00 Fair CLR 86 14 7% 83 29.83 0.0
08 17:50 W 7 G 15 10.00 Fair CLR 86 15.8 7% 83 29.83 0.0
08 16:50 NW 10 10.00 Fair CLR 87.8 21.2 9% 84 29.83 0.0
08 15:50 NW 10 G 18 10.00 Fair CLR 87.8 23 9% 84 29.83 0.0
08 14:50 SW 5 10.00 Fair CLR 86 30.2 13% 83 29.86 0.0
08 12:50 SE 5 10.00 Fair CLR 80.6 39.2 23% 79 29.9 0.0
08 11:50 S 3 10.00 Fair CLR 78.8 48.2 34% 79 29.93 0.0
08 10:50 S 5 10.00 Fair CLR 71.6 55.4 57% 29.95 0.0
08 09:50 W 3 10.00 A Few Clouds FEW013 66.2 57.2 73% 29.97 0.0
08 08:50 Calm 10.00 Overcast OVC006 60.8 57.2 88% 29.98 0.0
08 07:50 S 8 G 15 10.00 Overcast OVC006 59 57.2 94% 29.98 0.0
08 06:50 S 6 1.00 Fog/Mist OVC003 57.2 57.2 100% 29.96 0.0
08 05:50 S 7 5.00 Fog/Mist OVC004 57.2 55.4 94% 29.95 0.0
08 05:35 S 5 6.00 Fog/Mist OVC004 57.2 55.4 94% 29.96 0.0
08 05:15 S 5 5.00 Fog/Mist OVC004 57.2 53.6 88% 29.96 0.0
08 04:55 SW 7 10.00 Overcast OVC004 57.2 53.6 88% 29.96 0.0
08 04:35 S 9 G 17 10.00 Overcast OVC005 55.4 51.8 88% 29.95 0.0
08 04:15 S 9 10.00 Overcast OVC007 57.2 50 77% 29.96 0.0
08 03:35 Calm 10.00 Overcast OVC007 55.4 48.2 77% 29.96 0.0
08 02:15 S 7 10.00 Fair CLR 53.6 46.4 77% 29.97 0.0
08 01:55 S 9 10.00 Fair CLR 53.6 46.4 77% 29.97 0.0
08 01:35 S 7 10.00 Fair CLR 55.4 46.4 72% 29.98 0.0
08 00:35 S 8 10.00 Fair CLR 55.4 46.4 72% 29.99 0.0
08 00:15 SW 5 10.00 A Few Clouds FEW025 55.4 46.4 72% 30 0.0
07 22:55 S 8 10.00 A Few Clouds FEW027 60.8 46.4 59% 30.01 0.0
07 22:15 S 12 10.00 A Few Clouds FEW027 FEW031 62.6 46.4 56% 30.01 0.0
07 20:35 S 7 10.00 A Few Clouds FEW034 64.4 44.6 49% 29.98 0.0
07 20:15 SE 6 10.00 Fair CLR 66.2 44.6 46% 29.98 0.0
07 19:15 S 10 G 17 10.00 Fair CLR 71.6 42.8 36% 29.96 0.0
07 18:55 S 12 10.00 Fair CLR 73.4 41 31% 29.96 0.0
07 18:35 S 16 G 24 10.00 Fair CLR 75.2 41 29% 77 29.96 0.0
07 18:15 S 15 10.00 Fair CLR 75.2 41 29% 77 29.96 0.0
07 17:50 S 14 10.00 Fair CLR 77 41 28% 78 29.96 0.0
07 16:50 S 7 G 17 10.00 Fair CLR 75.2 39.2 27% 77 29.97 0.0
07 15:50 Calm 10.00 Fair CLR 75.2 41 29% 77 29.99 0.0
07 14:50 E 8 10.00 Fair CLR 73.4 41 31% 30.02 0.0
07 13:50 SE 6 10.00 Fair CLR 69.8 42.8 38% 30.06 0.0
07 12:50 SE 5 10.00 Fair CLR 66.2 42.8 43% 30.09 0.0
07 11:50 SE 6 10.00 Fair CLR 64.4 42.8 46% 30.12 0.0
07 10:50 Calm 10.00 Fair CLR 60.8 42.8 52% 30.15 0.0
Date Time (mdt) Wind (mph) Vis. (mi.) Weather Sky Cond. Air Dwpt Max. Min. Relative Humidity Wind Chill (°F) Heat Index (°F) altimeter (in) sea level (mb) 1 hr 3 hr 6 hr
6 hour
Temperature (ºF) Pressure Precipitation (in)